sensor_id;sensor_type;location;lat;lon;timestamp;P1;durP1;ratioP1;P2;durP2;ratioP2
10529;SDS011;5313;48.834;9.228;2022-11-15T00:00:47;8.00;;;4.07;;
10529;SDS011;5313;48.834;9.228;2022-11-15T00:03:13;6.27;;;3.80;;
10529;SDS011;5313;48.834;9.228;2022-11-15T00:05:43;6.33;;;4.40;;
10529;SDS011;5313;48.834;9.228;2022-11-15T00:08:09;6.27;;;3.87;;
10529;SDS011;5313;48.834;9.228;2022-11-15T00:10:35;8.63;;;4.87;;
10529;SDS011;5313;48.834;9.228;2022-11-15T00:13:04;10.77;;;4.10;;
10529;SDS011;5313;48.834;9.228;2022-11-15T00:15:30;8.07;;;4.63;;
10529;SDS011;5313;48.834;9.228;2022-11-15T00:17:56;10.37;;;5.50;;
10529;SDS011;5313;48.834;9.228;2022-11-15T00:20:21;7.57;;;5.03;;
10529;SDS011;5313;48.834;9.228;2022-11-15T00:22:47;8.43;;;4.83;;
10529;SDS011;5313;48.834;9.228;2022-11-15T00:25:12;7.73;;;4.90;;
10529;SDS011;5313;48.834;9.228;2022-11-15T00:27:38;8.03;;;5.27;;
10529;SDS011;5313;48.834;9.228;2022-11-15T00:30:03;8.70;;;5.00;;
10529;SDS011;5313;48.834;9.228;2022-11-15T00:32:32;8.57;;;5.47;;
10529;SDS011;5313;48.834;9.228;2022-11-15T00:34:58;9.90;;;5.20;;
10529;SDS011;5313;48.834;9.228;2022-11-15T00:37:23;9.13;;;4.73;;
10529;SDS011;5313;48.834;9.228;2022-11-15T00:39:49;8.27;;;5.17;;
10529;SDS011;5313;48.834;9.228;2022-11-15T00:42:14;6.83;;;4.33;;
10529;SDS011;5313;48.834;9.228;2022-11-15T00:44:40;9.97;;;4.00;;
10529;SDS011;5313;48.834;9.228;2022-11-15T00:47:05;5.73;;;3.80;;
10529;SDS011;5313;48.834;9.228;2022-11-15T00:49:31;7.57;;;3.47;;
10529;SDS011;5313;48.834;9.228;2022-11-15T00:51:56;9.20;;;3.37;;
10529;SDS011;5313;48.834;9.228;2022-11-15T00:54:22;7.40;;;3.80;;
10529;SDS011;5313;48.834;9.228;2022-11-15T00:56:47;9.27;;;3.70;;
10529;SDS011;5313;48.834;9.228;2022-11-15T00:59:13;6.30;;;3.40;;
10529;SDS011;5313;48.834;9.228;2022-11-15T01:01:39;7.53;;;3.80;;
10529;SDS011;5313;48.834;9.228;2022-11-15T01:04:04;6.13;;;3.53;;
10529;SDS011;5313;48.834;9.228;2022-11-15T01:06:30;7.17;;;5.00;;
10529;SDS011;5313;48.834;9.228;2022-11-15T01:08:55;7.77;;;5.23;;
10529;SDS011;5313;48.834;9.228;2022-11-15T01:11:21;8.23;;;5.33;;
10529;SDS011;5313;48.834;9.228;2022-11-15T01:13:46;9.33;;;5.20;;
10529;SDS011;5313;48.834;9.228;2022-11-15T01:16:13;7.73;;;5.27;;
10529;SDS011;5313;48.834;9.228;2022-11-15T01:18:43;9.57;;;5.37;;
10529;SDS011;5313;48.834;9.228;2022-11-15T01:21:10;8.03;;;5.53;;
10529;SDS011;5313;48.834;9.228;2022-11-15T01:23:37;8.53;;;5.10;;
10529;SDS011;5313;48.834;9.228;2022-11-15T01:26:03;8.43;;;5.70;;
10529;SDS011;5313;48.834;9.228;2022-11-15T01:28:31;8.93;;;4.87;;
10529;SDS011;5313;48.834;9.228;2022-11-15T01:31:01;5.77;;;3.80;;
10529;SDS011;5313;48.834;9.228;2022-11-15T01:33:28;6.73;;;3.93;;
10529;SDS011;5313;48.834;9.228;2022-11-15T01:35:54;4.70;;;3.47;;
10529;SDS011;5313;48.834;9.228;2022-11-15T01:38:21;5.87;;;4.00;;
10529;SDS011;5313;48.834;9.228;2022-11-15T01:40:47;5.13;;;3.57;;
10529;SDS011;5313;48.834;9.228;2022-11-15T01:43:27;5.73;;;3.77;;
10529;SDS011;5313;48.834;9.228;2022-11-15T01:45:56;7.90;;;3.70;;
10529;SDS011;5313;48.834;9.228;2022-11-15T01:48:32;6.73;;;3.70;;
10529;SDS011;5313;48.834;9.228;2022-11-15T01:50:59;6.87;;;4.80;;
10529;SDS011;5313;48.834;9.228;2022-11-15T01:53:27;8.87;;;5.20;;
10529;SDS011;5313;48.834;9.228;2022-11-15T01:55:56;9.87;;;4.80;;
10529;SDS011;5313;48.834;9.228;2022-11-15T01:58:23;7.60;;;4.93;;
10529;SDS011;5313;48.834;9.228;2022-11-15T02:00:49;8.17;;;5.80;;
10529;SDS011;5313;48.834;9.228;2022-11-15T02:03:16;8.07;;;5.40;;
10529;SDS011;5313;48.834;9.228;2022-11-15T02:05:42;11.07;;;5.83;;
10529;SDS011;5313;48.834;9.228;2022-11-15T02:08:09;9.13;;;4.80;;
10529;SDS011;5313;48.834;9.228;2022-11-15T02:10:44;9.13;;;4.77;;
10529;SDS011;5313;48.834;9.228;2022-11-15T02:13:16;9.77;;;5.20;;
10529;SDS011;5313;48.834;9.228;2022-11-15T02:16:27;8.20;;;5.47;;
10529;SDS011;5313;48.834;9.228;2022-11-15T02:18:38;9.33;;;5.47;;
10529;SDS011;5313;48.834;9.228;2022-11-15T02:21:15;10.00;;;6.03;;
10529;SDS011;5313;48.834;9.228;2022-11-15T02:24:02;11.43;;;5.80;;
10529;SDS011;5313;48.834;9.228;2022-11-15T02:27:08;10.40;;;5.90;;
10529;SDS011;5313;48.834;9.228;2022-11-15T02:30:04;10.77;;;6.40;;
10529;SDS011;5313;48.834;9.228;2022-11-15T02:32:56;8.30;;;5.60;;
10529;SDS011;5313;48.834;9.228;2022-11-15T02:35:28;9.17;;;5.30;;
10529;SDS011;5313;48.834;9.228;2022-11-15T02:38:10;9.07;;;4.93;;
10529;SDS011;5313;48.834;9.228;2022-11-15T02:41:09;9.40;;;5.23;;
10529;SDS011;5313;48.834;9.228;2022-11-15T02:43:41;9.23;;;5.40;;
10529;SDS011;5313;48.834;9.228;2022-11-15T02:49:08;8.57;;;5.50;;
10529;SDS011;5313;48.834;9.228;2022-11-15T02:51:36;7.87;;;4.47;;
10529;SDS011;5313;48.834;9.228;2022-11-15T02:54:03;8.50;;;4.67;;
10529;SDS011;5313;48.834;9.228;2022-11-15T02:56:28;7.10;;;5.00;;
10529;SDS011;5313;48.834;9.228;2022-11-15T03:09:55;12.70;;;7.30;;
10529;SDS011;5313;48.834;9.228;2022-11-15T03:12:34;13.97;;;6.87;;
10529;SDS011;5313;48.834;9.228;2022-11-15T03:17:36;11.17;;;7.13;;
10529;SDS011;5313;48.834;9.228;2022-11-15T03:20:07;10.83;;;7.40;;
10529;SDS011;5313;48.834;9.228;2022-11-15T03:22:36;12.17;;;7.60;;
10529;SDS011;5313;48.834;9.228;2022-11-15T03:25:05;13.73;;;7.53;;
10529;SDS011;5313;48.834;9.228;2022-11-15T03:27:35;11.10;;;7.50;;
10529;SDS011;5313;48.834;9.228;2022-11-15T03:30:05;15.27;;;7.03;;
10529;SDS011;5313;48.834;9.228;2022-11-15T03:32:34;11.97;;;7.87;;
10529;SDS011;5313;48.834;9.228;2022-11-15T03:35:08;11.67;;;7.37;;
10529;SDS011;5313;48.834;9.228;2022-11-15T03:37:37;13.43;;;8.53;;
10529;SDS011;5313;48.834;9.228;2022-11-15T03:40:22;14.03;;;7.80;;
10529;SDS011;5313;48.834;9.228;2022-11-15T03:42:57;13.93;;;8.10;;
10529;SDS011;5313;48.834;9.228;2022-11-15T03:45:29;12.93;;;8.43;;
10529;SDS011;5313;48.834;9.228;2022-11-15T03:48:11;15.90;;;8.50;;
10529;SDS011;5313;48.834;9.228;2022-11-15T03:50:41;14.20;;;7.73;;
10529;SDS011;5313;48.834;9.228;2022-11-15T03:53:08;12.53;;;7.87;;
10529;SDS011;5313;48.834;9.228;2022-11-15T03:55:34;17.17;;;8.33;;
10529;SDS011;5313;48.834;9.228;2022-11-15T03:58:00;17.00;;;8.47;;
10529;SDS011;5313;48.834;9.228;2022-11-15T04:00:27;12.10;;;8.50;;
10529;SDS011;5313;48.834;9.228;2022-11-15T04:02:53;11.77;;;8.03;;
10529;SDS011;5313;48.834;9.228;2022-11-15T04:05:19;14.77;;;8.50;;
10529;SDS011;5313;48.834;9.228;2022-11-15T04:07:44;12.37;;;8.67;;
10529;SDS011;5313;48.834;9.228;2022-11-15T04:10:10;11.87;;;8.80;;
10529;SDS011;5313;48.834;9.228;2022-11-15T04:12:38;13.93;;;8.00;;
10529;SDS011;5313;48.834;9.228;2022-11-15T04:15:08;14.67;;;7.97;;
10529;SDS011;5313;48.834;9.228;2022-11-15T04:17:39;12.03;;;7.27;;
10529;SDS011;5313;48.834;9.228;2022-11-15T04:22:55;12.60;;;7.63;;
10529;SDS011;5313;48.834;9.228;2022-11-15T04:25:52;12.57;;;7.33;;
10529;SDS011;5313;48.834;9.228;2022-11-15T04:28:19;13.10;;;7.57;;
10529;SDS011;5313;48.834;9.228;2022-11-15T04:30:44;11.20;;;6.70;;
10529;SDS011;5313;48.834;9.228;2022-11-15T04:33:10;10.47;;;7.17;;
10529;SDS011;5313;48.834;9.228;2022-11-15T04:35:36;10.83;;;6.70;;
10529;SDS011;5313;48.834;9.228;2022-11-15T04:38:02;9.93;;;6.60;;
10529;SDS011;5313;48.834;9.228;2022-11-15T04:40:29;12.17;;;7.63;;
10529;SDS011;5313;48.834;9.228;2022-11-15T04:42:55;10.97;;;7.70;;
10529;SDS011;5313;48.834;9.228;2022-11-15T04:45:20;11.53;;;6.80;;
10529;SDS011;5313;48.834;9.228;2022-11-15T04:47:46;12.17;;;6.60;;
10529;SDS011;5313;48.834;9.228;2022-11-15T04:50:12;8.60;;;6.13;;
10529;SDS011;5313;48.834;9.228;2022-11-15T04:52:42;9.07;;;6.10;;
10529;SDS011;5313;48.834;9.228;2022-11-15T04:55:14;11.17;;;6.30;;
10529;SDS011;5313;48.834;9.228;2022-11-15T04:57:40;7.87;;;5.70;;
10529;SDS011;5313;48.834;9.228;2022-11-15T05:00:06;10.30;;;6.60;;
10529;SDS011;5313;48.834;9.228;2022-11-15T05:02:34;9.77;;;6.07;;
10529;SDS011;5313;48.834;9.228;2022-11-15T05:05:18;9.23;;;6.53;;
10529;SDS011;5313;48.834;9.228;2022-11-15T05:07:43;8.63;;;6.10;;
10529;SDS011;5313;48.834;9.228;2022-11-15T05:10:09;10.17;;;6.23;;
10529;SDS011;5313;48.834;9.228;2022-11-15T05:12:35;11.80;;;6.30;;
10529;SDS011;5313;48.834;9.228;2022-11-15T05:15:01;9.50;;;6.10;;
10529;SDS011;5313;48.834;9.228;2022-11-15T05:17:26;11.40;;;5.97;;
10529;SDS011;5313;48.834;9.228;2022-11-15T05:19:52;11.17;;;5.80;;
10529;SDS011;5313;48.834;9.228;2022-11-15T05:22:18;11.97;;;6.93;;
10529;SDS011;5313;48.834;9.228;2022-11-15T05:24:44;9.50;;;6.30;;
10529;SDS011;5313;48.834;9.228;2022-11-15T05:27:10;11.90;;;6.57;;
10529;SDS011;5313;48.834;9.228;2022-11-15T05:29:35;13.93;;;7.73;;
10529;SDS011;5313;48.834;9.228;2022-11-15T05:32:01;15.70;;;8.33;;
10529;SDS011;5313;48.834;9.228;2022-11-15T05:34:30;14.23;;;8.30;;
10529;SDS011;5313;48.834;9.228;2022-11-15T05:36:55;13.97;;;8.33;;
10529;SDS011;5313;48.834;9.228;2022-11-15T05:39:21;11.70;;;7.10;;
10529;SDS011;5313;48.834;9.228;2022-11-15T05:41:57;11.63;;;7.57;;
10529;SDS011;5313;48.834;9.228;2022-11-15T05:44:29;11.90;;;7.23;;
10529;SDS011;5313;48.834;9.228;2022-11-15T05:46:56;11.63;;;7.33;;
10529;SDS011;5313;48.834;9.228;2022-11-15T05:49:23;13.17;;;7.90;;
10529;SDS011;5313;48.834;9.228;2022-11-15T05:51:52;18.67;;;7.70;;
10529;SDS011;5313;48.834;9.228;2022-11-15T05:54:18;11.20;;;6.93;;
10529;SDS011;5313;48.834;9.228;2022-11-15T05:56:47;11.83;;;7.10;;
10529;SDS011;5313;48.834;9.228;2022-11-15T05:59:13;10.33;;;6.43;;
10529;SDS011;5313;48.834;9.228;2022-11-15T06:01:39;11.20;;;7.10;;
10529;SDS011;5313;48.834;9.228;2022-11-15T06:04:05;17.07;;;9.13;;
10529;SDS011;5313;48.834;9.228;2022-11-15T06:06:30;33.33;;;13.50;;
10529;SDS011;5313;48.834;9.228;2022-11-15T06:08:56;14.83;;;8.20;;
10529;SDS011;5313;48.834;9.228;2022-11-15T06:11:21;15.00;;;6.67;;
10529;SDS011;5313;48.834;9.228;2022-11-15T06:13:47;11.67;;;5.83;;
10529;SDS011;5313;48.834;9.228;2022-11-15T06:16:12;13.03;;;6.20;;
10529;SDS011;5313;48.834;9.228;2022-11-15T06:18:38;7.53;;;5.03;;
10529;SDS011;5313;48.834;9.228;2022-11-15T06:21:04;9.87;;;4.77;;
10529;SDS011;5313;48.834;9.228;2022-11-15T06:23:33;7.33;;;5.20;;
10529;SDS011;5313;48.834;9.228;2022-11-15T06:26:00;8.23;;;5.03;;
10529;SDS011;5313;48.834;9.228;2022-11-15T06:28:28;7.37;;;4.60;;
10529;SDS011;5313;48.834;9.228;2022-11-15T06:30:55;5.93;;;4.73;;
10529;SDS011;5313;48.834;9.228;2022-11-15T06:33:21;8.43;;;4.87;;
10529;SDS011;5313;48.834;9.228;2022-11-15T06:35:46;4.97;;;3.83;;
10529;SDS011;5313;48.834;9.228;2022-11-15T06:38:12;6.40;;;4.13;;
10529;SDS011;5313;48.834;9.228;2022-11-15T06:40:38;7.57;;;4.40;;
10529;SDS011;5313;48.834;9.228;2022-11-15T06:43:04;6.33;;;4.60;;
10529;SDS011;5313;48.834;9.228;2022-11-15T06:45:31;6.80;;;4.30;;
10529;SDS011;5313;48.834;9.228;2022-11-15T06:47:57;9.00;;;4.33;;
10529;SDS011;5313;48.834;9.228;2022-11-15T06:50:22;5.93;;;4.10;;
10529;SDS011;5313;48.834;9.228;2022-11-15T06:52:48;7.83;;;4.37;;
10529;SDS011;5313;48.834;9.228;2022-11-15T06:55:14;6.87;;;4.17;;
10529;SDS011;5313;48.834;9.228;2022-11-15T06:57:46;6.67;;;4.63;;
10529;SDS011;5313;48.834;9.228;2022-11-15T07:00:16;8.80;;;4.80;;
10529;SDS011;5313;48.834;9.228;2022-11-15T07:02:45;9.63;;;5.00;;
10529;SDS011;5313;48.834;9.228;2022-11-15T07:05:12;9.50;;;5.50;;
10529;SDS011;5313;48.834;9.228;2022-11-15T07:07:38;11.30;;;5.73;;
10529;SDS011;5313;48.834;9.228;2022-11-15T07:10:04;7.57;;;5.10;;
10529;SDS011;5313;48.834;9.228;2022-11-15T07:12:30;13.47;;;6.10;;
10529;SDS011;5313;48.834;9.228;2022-11-15T07:14:55;9.43;;;5.53;;
10529;SDS011;5313;48.834;9.228;2022-11-15T07:17:21;9.23;;;5.23;;
10529;SDS011;5313;48.834;9.228;2022-11-15T07:19:46;7.93;;;5.20;;
10529;SDS011;5313;48.834;9.228;2022-11-15T07:22:12;7.77;;;5.17;;
10529;SDS011;5313;48.834;9.228;2022-11-15T07:24:37;8.33;;;5.33;;
10529;SDS011;5313;48.834;9.228;2022-11-15T07:27:03;10.47;;;5.63;;
10529;SDS011;5313;48.834;9.228;2022-11-15T07:29:28;11.77;;;5.53;;
10529;SDS011;5313;48.834;9.228;2022-11-15T07:31:54;7.93;;;5.10;;
10529;SDS011;5313;48.834;9.228;2022-11-15T07:34:20;8.63;;;5.33;;
10529;SDS011;5313;48.834;9.228;2022-11-15T07:36:45;8.83;;;5.20;;
10529;SDS011;5313;48.834;9.228;2022-11-15T07:39:11;8.63;;;4.67;;
10529;SDS011;5313;48.834;9.228;2022-11-15T07:41:37;7.03;;;5.10;;
10529;SDS011;5313;48.834;9.228;2022-11-15T07:44:03;9.27;;;4.97;;
10529;SDS011;5313;48.834;9.228;2022-11-15T07:46:29;9.17;;;5.70;;
10529;SDS011;5313;48.834;9.228;2022-11-15T07:48:55;7.17;;;5.00;;
10529;SDS011;5313;48.834;9.228;2022-11-15T07:51:21;7.67;;;4.73;;
10529;SDS011;5313;48.834;9.228;2022-11-15T07:53:46;6.47;;;4.40;;
10529;SDS011;5313;48.834;9.228;2022-11-15T07:56:12;7.37;;;4.70;;
10529;SDS011;5313;48.834;9.228;2022-11-15T07:58:38;5.80;;;4.20;;
10529;SDS011;5313;48.834;9.228;2022-11-15T08:01:04;5.40;;;3.93;;
10529;SDS011;5313;48.834;9.228;2022-11-15T08:03:31;5.43;;;3.97;;
10529;SDS011;5313;48.834;9.228;2022-11-15T08:05:57;7.10;;;3.97;;
10529;SDS011;5313;48.834;9.228;2022-11-15T08:08:22;5.43;;;3.83;;
10529;SDS011;5313;48.834;9.228;2022-11-15T08:10:48;8.50;;;3.83;;
10529;SDS011;5313;48.834;9.228;2022-11-15T08:13:14;7.70;;;4.13;;
10529;SDS011;5313;48.834;9.228;2022-11-15T08:15:40;7.30;;;4.20;;
10529;SDS011;5313;48.834;9.228;2022-11-15T08:18:09;6.53;;;4.57;;
10529;SDS011;5313;48.834;9.228;2022-11-15T08:20:36;6.87;;;4.33;;
10529;SDS011;5313;48.834;9.228;2022-11-15T08:23:03;9.17;;;4.37;;
10529;SDS011;5313;48.834;9.228;2022-11-15T08:25:30;6.67;;;4.47;;
10529;SDS011;5313;48.834;9.228;2022-11-15T08:27:57;5.70;;;3.43;;
10529;SDS011;5313;48.834;9.228;2022-11-15T08:30:24;7.03;;;4.27;;
10529;SDS011;5313;48.834;9.228;2022-11-15T08:32:51;7.27;;;4.23;;
10529;SDS011;5313;48.834;9.228;2022-11-15T08:35:17;5.23;;;4.03;;
10529;SDS011;5313;48.834;9.228;2022-11-15T08:37:44;7.30;;;4.10;;
10529;SDS011;5313;48.834;9.228;2022-11-15T08:40:09;6.70;;;4.47;;
10529;SDS011;5313;48.834;9.228;2022-11-15T08:42:35;10.30;;;4.93;;
10529;SDS011;5313;48.834;9.228;2022-11-15T08:45:01;8.67;;;4.90;;
10529;SDS011;5313;48.834;9.228;2022-11-15T08:47:27;6.87;;;4.33;;
10529;SDS011;5313;48.834;9.228;2022-11-15T08:49:53;5.73;;;4.43;;
10529;SDS011;5313;48.834;9.228;2022-11-15T08:52:18;5.70;;;4.50;;
10529;SDS011;5313;48.834;9.228;2022-11-15T08:54:44;7.00;;;4.37;;
10529;SDS011;5313;48.834;9.228;2022-11-15T08:57:10;8.87;;;4.60;;
10529;SDS011;5313;48.834;9.228;2022-11-15T08:59:35;6.20;;;4.50;;
10529;SDS011;5313;48.834;9.228;2022-11-15T09:02:02;5.97;;;4.00;;
10529;SDS011;5313;48.834;9.228;2022-11-15T09:04:27;6.23;;;4.03;;
10529;SDS011;5313;48.834;9.228;2022-11-15T09:06:53;7.13;;;4.10;;
10529;SDS011;5313;48.834;9.228;2022-11-15T09:09:19;5.60;;;4.07;;
10529;SDS011;5313;48.834;9.228;2022-11-15T09:11:44;10.03;;;4.20;;
10529;SDS011;5313;48.834;9.228;2022-11-15T09:14:13;8.93;;;3.90;;
10529;SDS011;5313;48.834;9.228;2022-11-15T09:16:39;5.43;;;3.93;;
10529;SDS011;5313;48.834;9.228;2022-11-15T09:19:05;4.90;;;3.53;;
10529;SDS011;5313;48.834;9.228;2022-11-15T09:21:31;6.87;;;3.97;;
10529;SDS011;5313;48.834;9.228;2022-11-15T09:23:57;7.37;;;4.23;;
10529;SDS011;5313;48.834;9.228;2022-11-15T09:26:23;4.70;;;3.20;;
10529;SDS011;5313;48.834;9.228;2022-11-15T09:28:48;5.70;;;3.20;;
10529;SDS011;5313;48.834;9.228;2022-11-15T09:31:14;3.90;;;2.83;;
10529;SDS011;5313;48.834;9.228;2022-11-15T09:33:39;6.57;;;2.40;;
10529;SDS011;5313;48.834;9.228;2022-11-15T09:36:07;6.17;;;2.50;;
10529;SDS011;5313;48.834;9.228;2022-11-15T09:38:34;5.17;;;2.47;;
10529;SDS011;5313;48.834;9.228;2022-11-15T09:43:47;4.63;;;2.60;;
10529;SDS011;5313;48.834;9.228;2022-11-15T09:48:59;3.60;;;2.37;;
10529;SDS011;5313;48.834;9.228;2022-11-15T09:51:33;3.73;;;2.40;;
10529;SDS011;5313;48.834;9.228;2022-11-15T09:54:15;5.77;;;2.40;;
10529;SDS011;5313;48.834;9.228;2022-11-15T09:56:46;3.10;;;2.10;;
10529;SDS011;5313;48.834;9.228;2022-11-15T10:02:31;6.67;;;2.37;;
10529;SDS011;5313;48.834;9.228;2022-11-15T10:05:12;3.00;;;2.37;;
10529;SDS011;5313;48.834;9.228;2022-11-15T10:13:22;4.87;;;2.67;;
10529;SDS011;5313;48.834;9.228;2022-11-15T10:15:51;5.20;;;3.03;;
10529;SDS011;5313;48.834;9.228;2022-11-15T10:21:11;3.70;;;2.57;;
10529;SDS011;5313;48.834;9.228;2022-11-15T10:23:39;5.97;;;2.60;;
10529;SDS011;5313;48.834;9.228;2022-11-15T10:26:07;8.83;;;2.83;;
10529;SDS011;5313;48.834;9.228;2022-11-15T10:28:35;5.20;;;2.90;;
10529;SDS011;5313;48.834;9.228;2022-11-15T10:31:01;5.10;;;2.97;;
10529;SDS011;5313;48.834;9.228;2022-11-15T10:33:30;4.73;;;2.83;;
10529;SDS011;5313;48.834;9.228;2022-11-15T10:38:59;3.40;;;2.30;;
10529;SDS011;5313;48.834;9.228;2022-11-15T10:46:37;3.80;;;2.30;;
10529;SDS011;5313;48.834;9.228;2022-11-15T10:49:23;4.93;;;2.60;;
10529;SDS011;5313;48.834;9.228;2022-11-15T10:51:54;7.17;;;3.10;;
10529;SDS011;5313;48.834;9.228;2022-11-15T10:54:46;5.17;;;2.70;;
10529;SDS011;5313;48.834;9.228;2022-11-15T10:57:33;5.10;;;2.20;;
10529;SDS011;5313;48.834;9.228;2022-11-15T11:00:06;4.20;;;2.63;;
10529;SDS011;5313;48.834;9.228;2022-11-15T11:08:00;3.53;;;2.33;;
10529;SDS011;5313;48.834;9.228;2022-11-15T11:10:54;3.90;;;1.97;;
10529;SDS011;5313;48.834;9.228;2022-11-15T11:15:50;3.67;;;2.00;;
10529;SDS011;5313;48.834;9.228;2022-11-15T11:18:28;3.63;;;2.20;;
10529;SDS011;5313;48.834;9.228;2022-11-15T11:21:10;2.87;;;2.00;;
10529;SDS011;5313;48.834;9.228;2022-11-15T11:23:48;5.73;;;2.20;;
10529;SDS011;5313;48.834;9.228;2022-11-15T11:32:00;3.83;;;2.40;;
10529;SDS011;5313;48.834;9.228;2022-11-15T11:34:43;3.97;;;2.63;;
10529;SDS011;5313;48.834;9.228;2022-11-15T11:42:57;4.33;;;2.67;;
10529;SDS011;5313;48.834;9.228;2022-11-15T11:45:40;5.43;;;2.70;;
10529;SDS011;5313;48.834;9.228;2022-11-15T11:51:24;6.53;;;2.77;;
10529;SDS011;5313;48.834;9.228;2022-11-15T11:53:54;6.30;;;2.70;;
10529;SDS011;5313;48.834;9.228;2022-11-15T11:56:23;5.90;;;2.20;;
10529;SDS011;5313;48.834;9.228;2022-11-15T12:01:59;3.87;;;2.50;;
10529;SDS011;5313;48.834;9.228;2022-11-15T12:04:38;4.40;;;2.50;;
10529;SDS011;5313;48.834;9.228;2022-11-15T12:07:11;5.97;;;2.70;;
10529;SDS011;5313;48.834;9.228;2022-11-15T12:09:46;4.47;;;2.50;;
10529;SDS011;5313;48.834;9.228;2022-11-15T12:12:40;5.77;;;2.87;;
10529;SDS011;5313;48.834;9.228;2022-11-15T12:15:15;4.07;;;2.67;;
10529;SDS011;5313;48.834;9.228;2022-11-15T12:17:47;5.83;;;2.40;;
10529;SDS011;5313;48.834;9.228;2022-11-15T12:20:15;5.97;;;2.43;;
10529;SDS011;5313;48.834;9.228;2022-11-15T12:23:05;5.70;;;2.90;;
10529;SDS011;5313;48.834;9.228;2022-11-15T12:25:45;12.57;;;6.90;;
10529;SDS011;5313;48.834;9.228;2022-11-15T12:31:01;5.03;;;2.47;;
10529;SDS011;5313;48.834;9.228;2022-11-15T12:33:34;4.93;;;2.50;;
10529;SDS011;5313;48.834;9.228;2022-11-15T12:41:19;3.97;;;2.60;;
10529;SDS011;5313;48.834;9.228;2022-11-15T12:43:46;5.77;;;2.50;;
10529;SDS011;5313;48.834;9.228;2022-11-15T12:46:20;8.00;;;2.63;;
10529;SDS011;5313;48.834;9.228;2022-11-15T12:49:01;4.50;;;2.20;;
10529;SDS011;5313;48.834;9.228;2022-11-15T12:59:48;5.27;;;2.27;;
10529;SDS011;5313;48.834;9.228;2022-11-15T13:02:23;2.90;;;2.23;;
10529;SDS011;5313;48.834;9.228;2022-11-15T13:17:44;5.43;;;2.27;;
10529;SDS011;5313;48.834;9.228;2022-11-15T13:20:17;4.53;;;2.00;;
10529;SDS011;5313;48.834;9.228;2022-11-15T13:22:51;3.80;;;2.10;;
10529;SDS011;5313;48.834;9.228;2022-11-15T13:28:02;2.67;;;1.80;;
10529;SDS011;5313;48.834;9.228;2022-11-15T13:30:36;2.80;;;2.20;;
10529;SDS011;5313;48.834;9.228;2022-11-15T13:33:09;3.97;;;1.93;;
10529;SDS011;5313;48.834;9.228;2022-11-15T13:35:49;6.33;;;1.90;;
10529;SDS011;5313;48.834;9.228;2022-11-15T13:40:57;4.20;;;2.13;;
10529;SDS011;5313;48.834;9.228;2022-11-15T13:43:35;4.50;;;2.10;;
10529;SDS011;5313;48.834;9.228;2022-11-15T13:48:43;4.13;;;2.30;;
10529;SDS011;5313;48.834;9.228;2022-11-15T13:51:15;5.30;;;2.50;;
10529;SDS011;5313;48.834;9.228;2022-11-15T13:53:55;3.30;;;2.23;;
10529;SDS011;5313;48.834;9.228;2022-11-15T13:56:26;3.73;;;2.20;;
10529;SDS011;5313;48.834;9.228;2022-11-15T13:58:56;2.57;;;2.17;;
10529;SDS011;5313;48.834;9.228;2022-11-15T14:01:22;4.03;;;1.90;;
10529;SDS011;5313;48.834;9.228;2022-11-15T14:06:21;4.47;;;2.17;;
10529;SDS011;5313;48.834;9.228;2022-11-15T14:11:35;3.87;;;2.33;;
10529;SDS011;5313;48.834;9.228;2022-11-15T14:16:39;3.93;;;2.83;;
10529;SDS011;5313;48.834;9.228;2022-11-15T14:19:05;5.27;;;2.60;;
10529;SDS011;5313;48.834;9.228;2022-11-15T14:21:34;4.93;;;2.80;;
10529;SDS011;5313;48.834;9.228;2022-11-15T14:26:44;4.23;;;2.67;;
10529;SDS011;5313;48.834;9.228;2022-11-15T14:31:51;6.10;;;3.30;;
10529;SDS011;5313;48.834;9.228;2022-11-15T14:34:17;4.00;;;2.77;;
10529;SDS011;5313;48.834;9.228;2022-11-15T14:36:43;6.63;;;3.23;;
10529;SDS011;5313;48.834;9.228;2022-11-15T14:39:09;4.20;;;2.70;;
10529;SDS011;5313;48.834;9.228;2022-11-15T14:41:35;5.03;;;3.00;;
10529;SDS011;5313;48.834;9.228;2022-11-15T14:44:04;4.73;;;3.10;;
10529;SDS011;5313;48.834;9.228;2022-11-15T14:46:31;5.83;;;3.10;;
10529;SDS011;5313;48.834;9.228;2022-11-15T14:48:57;4.60;;;3.00;;
10529;SDS011;5313;48.834;9.228;2022-11-15T14:51:22;5.23;;;3.00;;
10529;SDS011;5313;48.834;9.228;2022-11-15T14:53:48;6.53;;;3.40;;
10529;SDS011;5313;48.834;9.228;2022-11-15T14:56:14;4.67;;;3.17;;
10529;SDS011;5313;48.834;9.228;2022-11-15T14:58:41;6.07;;;3.43;;
10529;SDS011;5313;48.834;9.228;2022-11-15T15:01:14;6.17;;;3.07;;
10529;SDS011;5313;48.834;9.228;2022-11-15T15:03:45;5.07;;;3.37;;
10529;SDS011;5313;48.834;9.228;2022-11-15T15:06:11;4.97;;;3.47;;
10529;SDS011;5313;48.834;9.228;2022-11-15T15:08:38;4.53;;;3.33;;
10529;SDS011;5313;48.834;9.228;2022-11-15T15:11:10;6.33;;;3.60;;
10529;SDS011;5313;48.834;9.228;2022-11-15T15:13:39;6.47;;;3.57;;
10529;SDS011;5313;48.834;9.228;2022-11-15T15:16:05;5.33;;;3.40;;
10529;SDS011;5313;48.834;9.228;2022-11-15T15:18:30;8.20;;;3.77;;
10529;SDS011;5313;48.834;9.228;2022-11-15T15:20:57;6.83;;;3.53;;
10529;SDS011;5313;48.834;9.228;2022-11-15T15:23:32;8.53;;;4.03;;
10529;SDS011;5313;48.834;9.228;2022-11-15T15:26:00;7.33;;;4.13;;
10529;SDS011;5313;48.834;9.228;2022-11-15T15:28:26;5.97;;;4.40;;
10529;SDS011;5313;48.834;9.228;2022-11-15T15:30:51;8.17;;;5.47;;
10529;SDS011;5313;48.834;9.228;2022-11-15T15:33:17;8.97;;;4.83;;
10529;SDS011;5313;48.834;9.228;2022-11-15T15:35:43;10.23;;;5.43;;
10529;SDS011;5313;48.834;9.228;2022-11-15T15:38:10;7.40;;;5.20;;
10529;SDS011;5313;48.834;9.228;2022-11-15T15:40:37;6.97;;;4.80;;
10529;SDS011;5313;48.834;9.228;2022-11-15T15:43:02;8.00;;;5.03;;
10529;SDS011;5313;48.834;9.228;2022-11-15T15:45:28;11.00;;;6.03;;
10529;SDS011;5313;48.834;9.228;2022-11-15T15:47:54;8.43;;;5.63;;
10529;SDS011;5313;48.834;9.228;2022-11-15T15:50:22;12.83;;;6.60;;
10529;SDS011;5313;48.834;9.228;2022-11-15T15:52:53;10.07;;;6.47;;
10529;SDS011;5313;48.834;9.228;2022-11-15T15:55:21;14.30;;;7.03;;
10529;SDS011;5313;48.834;9.228;2022-11-15T15:57:47;12.00;;;7.07;;
10529;SDS011;5313;48.834;9.228;2022-11-15T16:00:12;14.80;;;6.97;;
10529;SDS011;5313;48.834;9.228;2022-11-15T16:02:39;12.07;;;7.07;;
10529;SDS011;5313;48.834;9.228;2022-11-15T16:05:05;13.77;;;7.13;;
10529;SDS011;5313;48.834;9.228;2022-11-15T16:07:31;11.70;;;7.40;;
10529;SDS011;5313;48.834;9.228;2022-11-15T16:09:57;13.10;;;7.20;;
10529;SDS011;5313;48.834;9.228;2022-11-15T16:12:32;16.13;;;7.60;;
10529;SDS011;5313;48.834;9.228;2022-11-15T16:14:59;23.50;;;8.27;;
10529;SDS011;5313;48.834;9.228;2022-11-15T16:17:29;12.80;;;6.90;;
10529;SDS011;5313;48.834;9.228;2022-11-15T16:19:57;13.17;;;6.70;;
10529;SDS011;5313;48.834;9.228;2022-11-15T16:22:23;15.23;;;7.33;;
10529;SDS011;5313;48.834;9.228;2022-11-15T16:24:48;15.90;;;7.20;;
10529;SDS011;5313;48.834;9.228;2022-11-15T16:27:18;13.73;;;6.67;;
10529;SDS011;5313;48.834;9.228;2022-11-15T16:29:45;19.00;;;8.17;;
10529;SDS011;5313;48.834;9.228;2022-11-15T16:32:11;12.47;;;7.33;;
10529;SDS011;5313;48.834;9.228;2022-11-15T16:34:37;11.83;;;7.00;;
10529;SDS011;5313;48.834;9.228;2022-11-15T16:37:03;14.47;;;6.73;;
10529;SDS011;5313;48.834;9.228;2022-11-15T16:39:29;13.17;;;7.57;;
10529;SDS011;5313;48.834;9.228;2022-11-15T16:41:56;14.87;;;7.40;;
10529;SDS011;5313;48.834;9.228;2022-11-15T16:44:22;12.97;;;7.37;;
10529;SDS011;5313;48.834;9.228;2022-11-15T16:46:49;12.70;;;7.67;;
10529;SDS011;5313;48.834;9.228;2022-11-15T16:49:16;10.43;;;6.67;;
10529;SDS011;5313;48.834;9.228;2022-11-15T16:51:42;12.43;;;7.43;;
10529;SDS011;5313;48.834;9.228;2022-11-15T16:54:10;12.13;;;6.80;;
10529;SDS011;5313;48.834;9.228;2022-11-15T16:56:37;12.20;;;7.57;;
10529;SDS011;5313;48.834;9.228;2022-11-15T16:59:04;13.20;;;6.70;;
10529;SDS011;5313;48.834;9.228;2022-11-15T17:01:30;12.30;;;7.10;;
10529;SDS011;5313;48.834;9.228;2022-11-15T17:03:59;11.23;;;6.53;;
10529;SDS011;5313;48.834;9.228;2022-11-15T17:06:40;14.13;;;7.40;;
10529;SDS011;5313;48.834;9.228;2022-11-15T17:09:10;20.03;;;7.33;;